• Join FlightAware (Why Join?)
  • Login
  • US Flag 
03:14AM EDT


 

Airport Tracker/Info


-or-


 

Live Flight TrackerFlight Track Log ✈ RPA3253 ✈ 19-Jul-2013 ✈ KCLT - KMSY

Flight Track Log - Related Links

Times and Time Zones

All times are in EDT time to prevent confusion due to time zone crossing. See the RPA3253 flight status page for this flight to view local times or setup timezone preferences in your user account.

Time Position Orientation Groundspeed Altitude Reporting Facility
EDT Latitude Longitude Course Direction KTS MPH feet Rate Location/Type
10:41PM 35.1956 -80.9533 192° South 151 174 1,400  Level Atlanta Center
10:42PM 35.1619 -80.9519 178° South 151 174 2,400 1,680 Climbing Atlanta Center
10:43PM 35.1300 -81.0014 232° Southwest 245 282 4,500 1,980 Climbing Atlanta Center
10:44PM 35.2667 -81.1784 270° West  Level FlightAware Approximate
10:44PM 35.1247 -81.0472 262° West 293 337 5,600  Level Atlanta Center
10:45PM 35.1976 -81.2463 199° South  Level FlightAware Approximate
10:45PM 35.1103 -81.1444 260° West 293 337 8,500  Level Atlanta Center
10:46PM 35.0970 -81.2799 192° South  Level FlightAware Approximate
10:46PM 35.0939 -81.2414 258° West 293 337 11,000  Level Atlanta Center
10:47PM 35.0692 -81.3461 254° West 315 362 13,200 2,160 Climbing Atlanta Center
10:48PM 35.0361 -81.4614 251° West 324 373 15,400 2,100 Climbing Atlanta Center
10:49PM 35.0008 -81.5742 249° West 335 386 17,500 1,860 Climbing Atlanta Center
10:50PM 34.9656 -81.6892 250° West 353 406 19,200 1,740 Climbing Atlanta Center
10:51PM 34.9281 -81.8119 250° West 373 429 21,000 1,740 Climbing Atlanta Center
10:52PM 34.8694 -81.9172 236° Southwest 386 444 22,700 1,560 Climbing Atlanta Center
10:53PM 34.8067 -82.0250 235° Southwest 392 451 24,200 1,440 Climbing Atlanta Center
10:54PM 34.7436 -82.1378 236° Southwest 397 457 25,600 1,320 Climbing Atlanta Center
10:55PM 34.6786 -82.2531 236° Southwest 409 471 26,900 1,140 Climbing Atlanta Center
10:56PM 34.6156 -82.3653 236° Southwest 409 471 27,900 1,080 Climbing Atlanta Center
10:57PM 34.5461 -82.4853 235° Southwest 422 486 29,100 960 Climbing Atlanta Center
10:58PM 34.4683 -82.6050 232° Southwest 434 499 29,900 780 Climbing Atlanta Center
10:59PM 34.4050 -82.7272 238° Southwest 440 506 30,700 900 Climbing Atlanta Center
11:00PM 34.3189 -82.8717 234° Southwest 446 513 31,900 960 Climbing Atlanta Center
11:01PM 34.2489 -82.9958 236° Southwest 446 513 32,900 900 Climbing Atlanta Center
11:02PM 34.1769 -83.1147 234° Southwest 451 519 33,800 540 Climbing Atlanta Center
11:03PM 34.1089 -83.2358 236° Southwest 451 519 34,000 60 Climbing Atlanta Center
11:04PM 34.0367 -83.3569 234° Southwest 451 519 34,000  Level Atlanta Center
11:05PM 33.9744 -83.4653 235° Southwest 445 512 34,000  Level Atlanta Center
11:06PM 33.9039 -83.5833 234° Southwest 445 512 34,000  Level Atlanta Center
11:07PM 33.8356 -83.6986 235° Southwest 440 506 34,000  Level Atlanta Center
11:08PM 33.7647 -83.8139 234° Southwest 435 501 34,000  Level Atlanta Center
11:09PM 33.6939 -83.9314 234° Southwest 435 501 34,000  Level Atlanta Center
11:10PM 33.6189 -84.0614 235° Southwest 429 494 34,000  Level Atlanta Center
11:11PM 33.5500 -84.1733 234° Southwest 429 494 34,000  Level Atlanta Center
11:12PM 33.4789 -84.2928 235° Southwest 434 499 34,000  Level Atlanta Center
11:13PM 33.4097 -84.4047 234° Southwest 428 493 34,000  Level Atlanta Center
11:14PM 33.3444 -84.5186 236° Southwest 433 498 34,000  Level Atlanta Center
11:15PM 33.2753 -84.6328 234° Southwest 433 498 34,000  Level Atlanta Center
11:16PM 33.2142 -84.7367 235° Southwest 427 491 34,000  Level Atlanta Center
11:17PM 33.1444 -84.8500 234° Southwest 427 491 34,000  Level Atlanta Center
11:18PM 33.0769 -84.9611 234° Southwest 429 494 34,000  Level Atlanta Center
11:19PM 33.0072 -85.0742 234° Southwest 434 499 34,000  Level Atlanta Center
11:20PM 32.9417 -85.1800 234° Southwest 427 491 34,000  Level Atlanta Center
11:21PM 32.8694 -85.2878 231° Southwest 421 484 34,100 420 Climbing Atlanta Center
11:22PM 32.7994 -85.4006 234° Southwest 421 484 34,900 900 Climbing Atlanta Center
11:23PM 32.7314 -85.5131 234° Southwest 426 490 35,900 540 Climbing Atlanta Center
11:24PM 32.6611 -85.6228 233° Southwest 431 496 36,000  Climbing Atlanta Center
11:25PM 32.5908 -85.7375 234° Southwest 431 496 36,000  Level Atlanta Center
11:26PM 32.5225 -85.8469 233° Southwest 431 496 36,000  Level Atlanta Center
11:27PM 32.4433 -85.9636 231° Southwest 437 503 36,000  Level Atlanta Center
11:28PM 32.3769 -86.0728 234° Southwest 432 497 36,000  Level Atlanta Center
11:29PM 32.3103 -86.1819 234° Southwest 426 490 36,000  Level Atlanta Center
11:30PM 32.2417 -86.2883 233° Southwest 426 490 36,000  Level Atlanta Center
11:31PM 32.1747 -86.4019 235° Southwest 422 486 36,000  Level Atlanta Center
11:32PM 32.0978 -86.5028 228° Southwest 417 480 36,000  Level Atlanta Center
11:33PM 32.0225 -86.6086 230° Southwest 417 480 36,000  Level Atlanta Center
11:34PM 31.9344 -86.7211 227° Southwest 425 489 36,000  Level Atlanta Center
11:35PM 31.8592 -86.8239 229° Southwest 425 489 36,000  Level Atlanta Center
11:36PM 31.7839 -86.9292 230° Southwest 425 489 36,000  Level Atlanta Center
11:37PM 31.7103 -87.0317 230° Southwest 425 489 36,000  Level Atlanta Center
11:38PM 31.6433 -87.1247 230° Southwest 419 482 36,000  Level Atlanta Center
11:39PM 31.5664 -87.2242 228° Southwest 420 483 36,000  Level Houston Center
11:40PM 31.4775 -87.3467 230° Southwest 414 476 36,000  Level Houston Center
11:41PM 31.4028 -87.4481 229° Southwest 413 475 36,000  Level Houston Center
11:42PM 31.3292 -87.5497 230° Southwest 410 472 36,000  Level Houston Center
11:43PM 31.2544 -87.6514 229° Southwest 414 476 36,000  Level Houston Center
11:44PM 31.1853 -87.7458 229° Southwest 415 478 36,000  Level Houston Center
11:45PM 31.1258 -87.8642 240° Southwest 424 488 36,000 -300 Level Houston Center
11:46PM 31.0661 -87.9839 240° Southwest 429 494 35,400 -840 Descending Houston Center
11:47PM 31.0042 -88.1031 239° Southwest 432 497 34,400 -1,020 Descending Houston Center
11:48PM 30.9394 -88.2236 238° Southwest 440 506 33,400 -1,140 Descending Houston Center
11:49PM 30.8694 -88.3683 241° Southwest 427 491 32,200 -1,140 Descending Houston Center
11:50PM 30.8078 -88.4878 239° Southwest 429 494 31,200 -1,020 Descending Houston Center
11:51PM 30.7450 -88.6108 239° Southwest 440 506 30,200 -1,020 Descending Houston Center
11:52PM 30.6828 -88.7311 239° Southwest 448 516 29,200 -1,260 Descending Houston Center
11:53PM 30.6192 -88.8564 239° Southwest 450 518 27,700 -1,980 Descending Houston Center
11:54PM 30.5542 -88.9836 239° Southwest 447 514 25,200 -2,400 Descending Houston Center
11:55PM 30.4919 -89.1031 239° Southwest 434 499 22,900 -2,280 Descending Houston Center
11:56PM 30.4331 -89.2175 239° Southwest 418 481 20,700 -2,160 Descending Houston Center
11:57PM 30.3750 -89.3286 239° Southwest 405 466 18,600 -2,160 Descending Houston Center
11:58PM 30.3403 -89.3983 240° Southwest 395 455 17,400 -2,220 Descending Houston Center
11:58PM 30.3011 -89.4703 238° Southwest 389 448 15,900 -1,980 Descending Houston Center
11:59PM 30.2625 -89.5433 239° Southwest 384 442 14,500 -1,920 Descending Houston Center
12:00AM 30.2083 -89.6472 239° Southwest 375 432 12,500 -1,860 Descending Houston Center
12:01AM 30.1617 -89.7500 242° Southwest 361 415 10,800 -1,380 Descending Houston Center
12:02AM 30.1447 -89.8531 259° West 324 373 9,800 -1,380 Descending Houston Center
12:03AM 30.1317 -89.9464 261° West 300 345 8,100 -1,740 Descending Houston Center
12:04AM 30.1172 -90.0375 260° West 290 334 6,300 -1,740 Descending Houston Center
12:05AM 30.1003 -90.1269 258° West 286 329 4,700 -1,620 Descending Houston Center
12:06AM 30.0875 -90.2133 260° West 281 323 3,100 -840 Descending Houston Center
12:07AM 30.0828 -90.2978 266° West 273 314 3,000 -300 Descending Houston Center
12:08AM 30.0675 -90.3758 257° West 262 302 2,500 -720 Descending Houston Center
12:09AM 30.0164 -90.3797 184° South 233 268 1,600 -840 Descending Houston Center
12:10AM 30.0097 -90.3336 99° East 175 201 800 -660 Descending Houston Center
12:11AM 29.9989 -90.2883 105° East 152 175 300 -540 Descending Houston Center